Flight Track Log - Related Links

Times and Time Zones

All times are in EDT time to prevent confusion due to time zone crossing. See the CPZ5750 flight status page for this flight to view local times or setup timezone preferences in your user account.

Time Position Orientation Groundspeed Altitude Reporting Facility
EDT Latitude Longitude Course Direction KTS MPH feet Rate Location/Type
Sun 07:35:40 PM 42.6917 -73.8667 234° Southwest 214 246 3,100  Level Boston Center
Sun 07:37:04 PM 42.7597 -73.9247 328° Northwest 236 272 6,500 2,423 Climbing Boston Center
Sun 07:38:00 PM 42.8848 -74.5608 281° West  Level FlightAware Approximate
Sun 07:38:16 PM 42.8153 -73.9714 328° Northwest 231 266 9,400  Level Boston Center
Sun 07:39:00 PM 42.9065 -74.7185 281° West  Level FlightAware Approximate
Sun 07:39:16 PM 42.8894 -74.0383 327° Northwest 231 266 12,300  Level Boston Center
Sun 07:40:16 PM 42.9511 -74.0967 325° Northwest 258 297 14,200 1,364 Climbing Boston Center
Sun 07:41:28 PM 42.9800 -74.2422 285° West 300 345 15,300 1,182 Climbing Boston Center
Sun 07:42:28 PM 42.9906 -74.3647 277° West 349 402 16,800 1,550 Climbing Boston Center
Sun 07:43:28 PM 43.0089 -74.5186 279° West 372 428 18,400 1,450 Climbing Boston Center
Sun 07:44:28 PM 43.0189 -74.6467 276° West 377 434 19,700 1,300 Climbing Boston Center
Sun 07:45:28 PM 43.0347 -74.7922 279° West 382 440 21,000 1,400 Climbing Boston Center
Sun 07:46:28 PM 43.0503 -74.9433 278° West 392 451 22,500 1,400 Climbing Boston Center
Sun 07:47:28 PM 43.0656 -75.1003 278° West 404 465 23,800 1,150 Climbing Boston Center
Sun 07:48:28 PM 43.0806 -75.2572 278° West 417 480 24,800 1,100 Climbing Boston Center
Sun 07:49:28 PM 43.0950 -75.4200 277° West 428 493 26,000 1,000 Climbing Boston Center
Sun 07:50:28 PM 43.1114 -75.5858 278° West 433 498 26,800 700 Climbing Boston Center
Sun 07:51:28 PM 43.1314 -75.7633 279° West 439 505 27,400 786 Climbing Boston Center
Sun 07:53:16 PM 43.2167 -76.0167 295° West 450 518 29,000 929 Climbing Toronto Center
Sun 07:54:16 PM 43.2500 -76.1833 285° West 450 518 30,000 950 Climbing Toronto Center
Sun 07:55:16 PM 43.2500 -76.3667 270° West 460 529 30,900 900 Climbing Toronto Center
Sun 07:56:16 PM 43.2667 -76.5333 278° West 460 529 31,800 900 Climbing Toronto Center
Sun 07:57:16 PM 43.2833 -76.7000 278° West 460 529 32,700 950 Climbing Toronto Center
Sun 07:58:16 PM 43.3000 -76.8833 277° West 450 518 33,700 900 Climbing Toronto Center
Sun 07:59:16 PM 43.3000 -77.0500 270° West 450 518 34,500 750 Climbing Toronto Center
Sun 08:00:16 PM 43.3000 -77.2000 270° West 450 518 35,200 700 Climbing Toronto Center
Sun 08:01:16 PM 43.3167 -77.3833 277° West 440 506 35,900 400 Climbing Toronto Center
Sun 08:02:16 PM 43.3333 -77.5500 278° West 440 506 36,000 50 Climbing Toronto Center
Sun 08:03:16 PM 43.3333 -77.7333 270° West 460 529 36,000  Level Toronto Center
Sun 08:04:16 PM 43.3500 -77.9167 277° West 470 541 36,000  Level Toronto Center
Sun 08:05:16 PM 43.3500 -78.1000 270° West 480 552 36,000  Level Toronto Center
Sun 08:06:16 PM 43.3667 -78.2833 277° West 480 552 36,000  Level Toronto Center
Sun 08:07:16 PM 43.3667 -78.4333 270° West 480 552 36,000  Level Toronto Center
Sun 08:08:16 PM 43.3833 -78.6500 276° West 480 552 36,000  Level Toronto Center
Sun 08:09:16 PM 43.4000 -78.8000 279° West 470 541 36,000  Level Toronto Center
Sun 08:10:16 PM 43.4000 -78.9833 270° West 460 529 36,000  Level Toronto Center
Sun 08:11:16 PM 43.4167 -79.1500 278° West 450 518 36,000  Level Toronto Center
Sun 08:12:16 PM 43.4500 -79.3167 285° West 450 518 36,000  Level Toronto Center
Sun 08:13:16 PM 43.4667 -79.5000 277° West 450 518 36,000  Level Toronto Center
Sun 08:14:16 PM 43.5000 -79.6500 287° West 450 518 36,000  Level Toronto Center
Sun 08:15:16 PM 43.5167 -79.8167 278° West 460 529 36,000  Level Toronto Center
Sun 08:16:16 PM 43.5500 -80.0000 284° West 450 518 36,000  Level Toronto Center
Sun 08:17:16 PM 43.5833 -80.1667 285° West 450 518 36,000  Level Toronto Center
Sun 08:18:16 PM 43.6167 -80.3500 284° West 450 518 36,000  Level Toronto Center
Sun 08:19:16 PM 43.6333 -80.5000 279° West 450 518 36,000  Level Toronto Center
Sun 08:20:16 PM 43.6667 -80.6667 286° West 450 518 36,000  Level Toronto Center
Sun 08:21:16 PM 43.6667 -80.8500 270° West 450 518 36,000  Level Toronto Center
Sun 08:22:16 PM 43.7000 -81.0167 286° West 450 518 36,000  Level Toronto Center
Sun 08:23:16 PM 43.7333 -81.1833 286° West 450 518 36,000  Level Toronto Center
Sun 08:24:16 PM 43.7500 -81.3667 277° West 450 518 36,000  Level Toronto Center
Sun 08:25:16 PM 43.7833 -81.5333 286° West 450 518 36,000  Level Toronto Center
Sun 08:26:16 PM 43.8167 -81.6833 287° West 450 518 36,000  Level Toronto Center
Sun 08:27:16 PM 43.8333 -81.8667 277° West 450 518 36,000  Level Toronto Center
Sun 08:28:16 PM 43.8500 -82.0333 278° West 450 518 36,000  Level Toronto Center
Sun 08:29:16 PM 43.8833 -82.2000 286° West 450 518 36,000  Level Toronto Center
Sun 08:30:16 PM 43.9000 -82.3667 278° West 450 518 36,000  Level Toronto Center
Sun 08:31:16 PM 43.9333 -82.5500 284° West 450 518 36,000  Level Toronto Center
Sun 08:32:09 PM 43.9528 -82.6936 281° West 446 513 36,000  Level Minneapolis Center
Sun 08:33:11 PM 43.9758 -82.8619 281° West 444 511 36,000  Level Minneapolis Center
Sun 08:34:13 PM 43.9978 -83.0308 280° West 446 513 36,000  Level Minneapolis Center
Sun 08:35:15 PM 44.0208 -83.1981 281° West 443 510 36,000  Level Minneapolis Center
Sun 08:36:17 PM 44.0464 -83.3989 280° West 442 509 36,000  Level Minneapolis Center
Sun 08:37:19 PM 44.0681 -83.5653 280° West 440 506 36,000  Level Minneapolis Center
Sun 08:38:21 PM 44.0892 -83.7322 280° West 439 505 36,000  Level Minneapolis Center
Sun 08:39:23 PM 44.1089 -83.9008 279° West 441 507 36,000  Level Minneapolis Center
Sun 08:40:25 PM 44.1308 -84.0689 280° West 441 507 36,000  Level Minneapolis Center
Sun 08:41:28 PM 44.1503 -84.2369 279° West 442 509 36,000  Level Minneapolis Center
Sun 08:42:30 PM 44.1753 -84.4403 280° West 443 510 36,000  Level Minneapolis Center
Sun 08:43:32 PM 44.1958 -84.6097 280° West 445 512 36,000  Level Minneapolis Center
Sun 08:44:34 PM 44.2144 -84.7781 279° West 443 510 36,000  Level Minneapolis Center
Sun 08:45:36 PM 44.2347 -84.9464 280° West 441 507 36,000  Level Minneapolis Center
Sun 08:46:38 PM 44.2544 -85.1167 279° West 442 509 36,000  Level Minneapolis Center
Sun 08:47:40 PM 44.2725 -85.2867 278° West 443 510 36,000  Level Minneapolis Center
Sun 08:48:42 PM 44.2939 -85.4906 278° West 442 509 36,000  Level Minneapolis Center
Sun 08:49:44 PM 44.3131 -85.6625 279° West 446 513 36,000  Level Minneapolis Center
Sun 08:50:46 PM 44.3308 -85.8344 278° West 446 513 36,000  Level Minneapolis Center
Sun 08:51:48 PM 44.3486 -86.0058 278° West 445 512 36,000  Level Minneapolis Center
Sun 08:52:50 PM 44.3678 -86.1806 279° West 450 518 36,000  Level Minneapolis Center
Sun 08:53:52 PM 44.3844 -86.3539 278° West 449 517 36,000  Level Minneapolis Center
Sun 08:54:54 PM 44.4025 -86.5261 278° West 448 516 36,000  Level Minneapolis Center
Sun 08:55:56 PM 44.4194 -86.6992 278° West 447 514 36,000  Level Minneapolis Center
Sun 08:56:58 PM 44.4392 -86.9058 278° West 447 514 36,000  Level Minneapolis Center
Sun 08:58:00 PM 44.4556 -87.0800 278° West 449 517 36,000  Level Minneapolis Center
Sun 08:59:02 PM 44.4728 -87.2528 278° West 449 517 36,000  Level Minneapolis Center
Sun 09:00:05 PM 44.4886 -87.4261 277° West 449 517 36,000  Level Minneapolis Center
Sun 09:01:07 PM 44.5042 -87.5978 277° West 447 514 36,000  Level Minneapolis Center
Sun 09:02:09 PM 44.5197 -87.7717 277° West 449 517 36,000  Level Minneapolis Center
Sun 09:03:11 PM 44.5353 -87.9642 277° West 447 514 36,000  Level Minneapolis Center
Sun 09:04:13 PM 44.5503 -88.1383 277° West 451 519 36,000  Level Minneapolis Center
Sun 09:05:27 PM 44.5753 -88.3686 279° West 451 519 36,000  Level Minneapolis Center
Sun 09:06:29 PM 44.5956 -88.5411 279° West 450 518 36,000  Level Minneapolis Center
Sun 09:07:31 PM 44.6161 -88.7142 280° West 450 518 36,000  Level Minneapolis Center
Sun 09:08:33 PM 44.6353 -88.8861 279° West 449 517 36,000  Level Minneapolis Center
Sun 09:09:35 PM 44.6578 -89.0881 279° West 448 516 36,000  Level Minneapolis Center
Sun 09:10:37 PM 44.6767 -89.2622 279° West 451 519 36,000  Level Minneapolis Center
Sun 09:11:39 PM 44.6950 -89.4353 279° West 448 516 36,000  Level Minneapolis Center
Sun 09:12:41 PM 44.7136 -89.6078 279° West 448 516 36,000 -97 Level Minneapolis Center
Sun 09:13:43 PM 44.7319 -89.7808 279° West 447 514 35,800 -1,258 Descending Minneapolis Center
Sun 09:14:45 PM 44.7500 -89.9544 278° West 448 516 33,400 -1,839 Descending Minneapolis Center
Sun 09:15:47 PM 44.7711 -90.1542 279° West 444 511 32,000 -618 Descending Minneapolis Center
Sun 09:17:01 PM 44.7914 -90.3558 278° West 446 513 32,000  Level Minneapolis Center
Sun 09:18:04 PM 44.8092 -90.5361 278° West 446 513 32,000  Level Minneapolis Center
Sun 09:19:06 PM 44.8253 -90.7075 278° West 445 512 32,000 -823 Level Minneapolis Center
Sun 09:20:08 PM 44.8414 -90.8806 278° West 445 512 30,300 -1,984 Descending Minneapolis Center
Sun 09:21:10 PM 44.8578 -91.0506 278° West 442 509 27,900 -2,439 Descending Minneapolis Center
Sun 09:22:11 PM 44.8767 -91.2478 278° West 430 495 25,300 -2,341 Descending Minneapolis Center
Sun 09:23:13 PM 44.8903 -91.4075 277° West 419 482 23,100 -2,081 Descending Minneapolis Center
Sun 09:24:15 PM 44.9106 -91.5600 281° West 404 465 21,000 -2,032 Descending Minneapolis Center
Sun 09:25:17 PM 44.9406 -91.7094 286° West 397 457 18,900 -1,984 Descending Minneapolis Center
Sun 09:26:19 PM 44.9700 -91.8528 286° West 386 444 16,900 -1,935 Descending Minneapolis Center
Sun 09:27:21 PM 44.9953 -91.9936 284° West 374 430 14,900 -2,032 Descending Minneapolis Center
Sun 09:28:23 PM 45.0253 -92.1567 285° West 360 414 12,700 -1,887 Descending Minneapolis Center
Sun 09:29:25 PM 45.0478 -92.2850 284° West 342 394 11,000 -829 Descending Minneapolis Center
Sun 09:30:26 PM 45.0292 -92.4144 259° West 335 386 11,000  Level Minneapolis Center
Sun 09:31:28 PM 45.0083 -92.5433 257° West 337 388 11,000  Level Minneapolis Center
Sun 09:32:30 PM 44.9883 -92.6728 258° West 340 391 11,000  Level Minneapolis Center
Sun 09:33:32 PM 44.9675 -92.8028 257° West 341 392 11,000 -634 Level Minneapolis Center
Sun 09:34:33 PM 44.9450 -92.9439 257° West 307 353 9,700 -1,463 Descending Minneapolis Center
Sun 09:35:35 PM 44.9272 -93.0522 257° West 289 333 8,000 -823 Descending Minneapolis Center
Sun 09:36:37 PM 44.9631 -93.1486 298° West 283 326 8,000 -1,024 Level Minneapolis Center
Sun 09:37:38 PM 44.9994 -93.2292 303° West 244 281 5,900 -1,854 Descending Minneapolis Center
Sun 09:38:40 PM 45.0336 -93.3044 303° West 228 262 4,200 -976 Descending Minneapolis Center
Sun 09:39:41 PM 45.0122 -93.3539 239° Southwest 197 227 3,900 -295 Descending Minneapolis Center

Login

Don't have an account? Register now (free) for customized features, flight alerts, and more!